createdAt,value
2024-05-09T00:00:06.813Z,364
2024-05-09T00:01:04.710Z,362
2024-05-09T00:02:04.547Z,360
2024-05-09T00:03:04.351Z,370
2024-05-09T00:04:04.202Z,375
2024-05-09T00:05:04.388Z,378
2024-05-09T00:06:04.451Z,373
2024-05-09T00:07:04.211Z,360
2024-05-09T00:08:05.384Z,353
2024-05-09T00:09:04.180Z,362
2024-05-09T00:10:07.104Z,367
2024-05-09T00:11:04.697Z,373
2024-05-09T00:12:04.683Z,365
2024-05-09T00:13:04.538Z,362
2024-05-09T00:14:04.875Z,360
2024-05-09T00:15:04.819Z,365
2024-05-09T00:16:04.599Z,361
2024-05-09T00:17:04.087Z,360
2024-05-09T00:18:05.754Z,363
2024-05-09T00:19:04.684Z,372
2024-05-09T00:20:11.094Z,382
2024-05-09T00:21:05.013Z,371
2024-05-09T00:22:04.701Z,366
2024-05-09T00:23:04.225Z,358
2024-05-09T00:24:04.854Z,374
2024-05-09T00:25:04.612Z,372
2024-05-09T00:26:04.222Z,371
2024-05-09T00:27:04.068Z,369
2024-05-09T00:28:04.993Z,363
2024-05-09T00:29:04.736Z,365
2024-05-09T00:30:07.067Z,361
2024-05-09T00:31:04.259Z,368
2024-05-09T00:32:05.075Z,372
2024-05-09T00:33:06.024Z,370
2024-05-09T00:34:04.378Z,371
2024-05-09T00:35:04.189Z,374
2024-05-09T00:36:04.970Z,376
2024-05-09T00:37:04.602Z,377
2024-05-09T00:38:04.733Z,371
2024-05-09T00:39:05.184Z,367
2024-05-09T00:40:07.360Z,374
2024-05-09T00:41:04.538Z,371
2024-05-09T00:42:04.029Z,369
2024-05-09T00:43:04.871Z,367
2024-05-09T00:44:04.725Z,368
2024-05-09T00:46:04.557Z,361
2024-05-09T00:47:04.382Z,370
2024-05-09T00:48:04.623Z,376
2024-05-09T00:49:04.803Z,371
2024-05-09T00:50:07.630Z,368
2024-05-09T00:51:04.478Z,365
2024-05-09T00:52:04.254Z,368
2024-05-09T00:53:05.102Z,366
2024-05-09T00:54:04.055Z,372
2024-05-09T00:55:04.872Z,376
2024-05-09T00:56:04.516Z,378
2024-05-09T00:57:04.127Z,391
2024-05-09T00:58:04.932Z,383
2024-05-09T00:59:04.785Z,378
2024-05-09T01:00:07.792Z,373
2024-05-09T01:01:04.542Z,365
2024-05-09T01:02:04.336Z,373
2024-05-09T01:03:04.239Z,379
2024-05-09T01:04:04.401Z,388
2024-05-09T01:05:04.529Z,378
2024-05-09T01:06:04.480Z,375
2024-05-09T01:07:04.229Z,379
2024-05-09T01:08:05.122Z,378
2024-05-09T01:09:05.267Z,384
2024-05-09T01:10:09.170Z,391
2024-05-09T01:11:04.579Z,373
2024-05-09T01:12:04.410Z,370
2024-05-09T01:14:04.693Z,365
2024-05-09T01:15:04.494Z,374
2024-05-09T01:17:04.800Z,367
2024-05-09T01:18:04.865Z,370
2024-05-09T01:19:04.015Z,368
2024-05-09T01:20:06.216Z,365
2024-05-09T01:22:04.922Z,376
2024-05-09T01:23:04.656Z,378
2024-05-09T01:24:04.453Z,381
2024-05-09T01:25:04.162Z,380
2024-05-09T01:26:05.095Z,372
2024-05-09T01:27:04.986Z,373
2024-05-09T01:28:04.756Z,369
2024-05-09T01:30:06.963Z,367
2024-05-09T01:31:04.131Z,376
2024-05-09T01:32:04.857Z,389
2024-05-09T01:33:05.859Z,393
2024-05-09T01:34:04.956Z,387
2024-05-09T01:35:04.841Z,382
2024-05-09T01:36:04.612Z,377
2024-05-09T01:37:04.150Z,372
2024-05-09T01:38:05.277Z,378
2024-05-09T01:39:04.325Z,381
2024-05-09T01:40:07.452Z,382
2024-05-09T01:41:04.253Z,379
2024-05-09T01:43:04.788Z,384
2024-05-09T01:45:05.113Z,378
2024-05-09T01:46:04.956Z,373
2024-05-09T01:47:04.769Z,381
2024-05-09T01:48:05.160Z,382
2024-05-09T01:49:04.514Z,375
2024-05-09T01:50:06.802Z,381
2024-05-09T01:51:04.307Z,378
2024-05-09T01:52:04.093Z,387
2024-05-09T01:53:04.894Z,391
2024-05-09T01:54:04.888Z,390
2024-05-09T01:55:06.500Z,396
2024-05-09T01:56:04.593Z,387
2024-05-09T01:57:04.332Z,392
2024-05-09T01:58:04.975Z,393
2024-05-09T02:00:07.630Z,392
2024-05-09T02:01:04.548Z,386
2024-05-09T02:02:04.455Z,382
2024-05-09T02:03:04.432Z,386
2024-05-09T02:04:04.723Z,389
2024-05-09T02:05:05.337Z,376
2024-05-09T02:06:04.247Z,369
2024-05-09T02:07:04.988Z,376
2024-05-09T02:08:04.692Z,388
2024-05-09T02:09:04.519Z,391
2024-05-09T02:11:04.329Z,387
2024-05-09T02:13:04.387Z,382
2024-05-09T02:14:04.033Z,385
2024-05-09T02:15:05.143Z,391
2024-05-09T02:16:04.873Z,390
2024-05-09T02:17:04.612Z,394
2024-05-09T02:18:04.724Z,393
2024-05-09T02:19:05.180Z,382
2024-05-09T02:20:06.016Z,386
2024-05-09T02:21:04.378Z,393
2024-05-09T02:22:04.122Z,394
2024-05-09T02:23:05.306Z,393
2024-05-09T02:24:04.590Z,384
2024-05-09T02:25:04.260Z,387
2024-05-09T02:26:04.858Z,394
2024-05-09T02:27:04.626Z,390
2024-05-09T02:28:04.404Z,383
2024-05-09T02:29:04.177Z,381
2024-05-09T02:30:09.799Z,388
2024-05-09T02:31:03.930Z,384
2024-05-09T02:32:04.648Z,390
2024-05-09T02:33:04.428Z,392
2024-05-09T02:34:04.617Z,385
2024-05-09T02:35:04.661Z,387
2024-05-09T02:36:04.324Z,393
2024-05-09T02:37:04.923Z,408
2024-05-09T02:38:04.784Z,398
2024-05-09T02:39:04.813Z,385
2024-05-09T02:40:05.680Z,393
2024-05-09T02:41:04.759Z,388
2024-05-09T02:42:04.521Z,392
2024-05-09T02:43:03.981Z,401
2024-05-09T02:44:04.626Z,396
2024-05-09T02:45:04.572Z,399
2024-05-09T02:46:04.420Z,393
2024-05-09T02:47:04.039Z,387
2024-05-09T02:48:05.138Z,377
2024-05-09T02:49:04.477Z,384
2024-05-09T02:50:06.194Z,385
2024-05-09T02:53:04.145Z,386
2024-05-09T02:54:04.140Z,383
2024-05-09T02:55:04.759Z,393
2024-05-09T02:56:04.427Z,398
2024-05-09T02:57:04.066Z,396
2024-05-09T02:59:04.656Z,400
2024-05-09T03:00:06.188Z,387
2024-05-09T03:01:04.524Z,389
2024-05-09T03:02:04.831Z,392
2024-05-09T03:03:04.988Z,394
2024-05-09T03:04:04.614Z,397
2024-05-09T03:05:04.836Z,398
2024-05-09T03:06:04.804Z,401
2024-05-09T03:07:04.671Z,398
2024-05-09T03:08:05.052Z,387
2024-05-09T03:09:05.390Z,392
2024-05-09T03:10:07.380Z,394
2024-05-09T03:11:04.325Z,398
2024-05-09T03:12:04.336Z,397
2024-05-09T03:13:04.046Z,403
2024-05-09T03:14:05.029Z,400
2024-05-09T03:15:05.237Z,399
2024-05-09T03:16:05.158Z,401
2024-05-09T03:17:05.082Z,395
2024-05-09T03:18:04.364Z,400
2024-05-09T03:19:05.027Z,396
2024-05-09T03:20:06.894Z,399
2024-05-09T03:21:04.218Z,396
2024-05-09T03:22:04.115Z,390
2024-05-09T03:23:05.476Z,389
2024-05-09T03:24:04.518Z,393
2024-05-09T03:25:04.297Z,385
2024-05-09T03:26:04.943Z,397
2024-05-09T03:27:04.723Z,406
2024-05-09T03:28:04.518Z,404
2024-05-09T03:29:04.038Z,395
2024-05-09T03:30:07.185Z,396
2024-05-09T03:31:04.964Z,404
2024-05-09T03:32:04.753Z,401
2024-05-09T03:33:04.870Z,400
2024-05-09T03:34:04.960Z,406
2024-05-09T03:35:05.140Z,397
2024-05-09T03:36:06.883Z,400
2024-05-09T03:37:04.389Z,396
2024-05-09T03:38:04.967Z,393
2024-05-09T03:39:04.718Z,403
2024-05-09T03:40:09.175Z,411
2024-05-09T03:41:04.374Z,402
2024-05-09T03:42:03.956Z,403
2024-05-09T03:43:04.718Z,406
2024-05-09T03:44:04.411Z,414
2024-05-09T03:45:04.343Z,424
2024-05-09T03:46:05.124Z,421
2024-05-09T03:47:04.763Z,409
2024-05-09T03:48:04.885Z,411
2024-05-09T03:49:04.959Z,419
2024-05-09T03:50:05.867Z,413
2024-05-09T03:51:04.289Z,415
2024-05-09T03:52:04.131Z,419
2024-05-09T03:54:04.759Z,407
2024-05-09T03:55:04.466Z,408
2024-05-09T03:56:04.029Z,419
2024-05-09T03:57:04.803Z,416
2024-05-09T03:58:04.421Z,421
2024-05-09T03:59:05.153Z,417
2024-05-09T04:00:11.977Z,407
2024-05-09T04:02:04.625Z,411
2024-05-09T04:03:05.780Z,412
2024-05-09T04:04:04.648Z,406
2024-05-09T04:05:05.092Z,412
2024-05-09T04:06:05.122Z,418
2024-05-09T04:07:04.834Z,432
2024-05-09T04:08:04.532Z,423
2024-05-09T04:09:04.464Z,410
2024-05-09T04:11:05.094Z,416
2024-05-09T04:12:04.294Z,420
2024-05-09T04:13:04.606Z,432
2024-05-09T04:14:04.464Z,427
2024-05-09T04:15:04.781Z,431
2024-05-09T04:16:04.267Z,436
2024-05-09T04:17:05.078Z,425
2024-05-09T04:18:05.097Z,426
2024-05-09T04:19:04.408Z,427
2024-05-09T04:20:06.368Z,413
2024-05-09T04:21:04.822Z,414
2024-05-09T04:22:04.638Z,419
2024-05-09T04:23:04.380Z,421
2024-05-09T04:24:04.685Z,420
2024-05-09T04:25:04.612Z,412
2024-05-09T04:26:04.498Z,423
2024-05-09T04:27:04.417Z,434
2024-05-09T04:28:04.360Z,446
2024-05-09T04:29:04.200Z,433
2024-05-09T04:31:04.409Z,439
2024-05-09T04:32:04.167Z,431
2024-05-09T04:33:04.335Z,427
2024-05-09T04:34:04.497Z,430
2024-05-09T04:35:04.880Z,428
2024-05-09T04:36:04.732Z,424
2024-05-09T04:37:04.530Z,429
2024-05-09T04:38:04.118Z,420
2024-05-09T04:39:04.449Z,421
2024-05-09T04:40:06.910Z,431
2024-05-09T04:41:04.628Z,427
2024-05-09T04:42:04.391Z,422
2024-05-09T04:43:05.139Z,438
2024-05-09T04:44:04.466Z,425
2024-05-09T04:45:04.405Z,432
2024-05-09T04:46:04.214Z,427
2024-05-09T04:47:05.116Z,421
2024-05-09T04:48:05.212Z,428
2024-05-09T04:49:04.262Z,427
2024-05-09T04:50:05.525Z,423
2024-05-09T04:51:04.709Z,429
2024-05-09T04:52:04.387Z,432
2024-05-09T04:53:05.832Z,427
2024-05-09T04:54:04.515Z,419
2024-05-09T04:55:04.600Z,416
2024-05-09T04:57:04.066Z,434
2024-05-09T04:58:04.600Z,431
2024-05-09T04:59:04.372Z,425
2024-05-09T05:00:09.419Z,424
2024-05-09T05:01:05.178Z,415
2024-05-09T05:02:04.910Z,419
2024-05-09T05:03:04.931Z,421
2024-05-09T05:04:04.509Z,424
2024-05-09T05:05:04.682Z,423
2024-05-09T05:06:04.534Z,422
2024-05-09T05:08:04.202Z,431
2024-05-09T05:09:05.220Z,435
2024-05-09T05:10:05.915Z,430
2024-05-09T05:11:04.952Z,427
2024-05-09T05:12:04.925Z,433
2024-05-09T05:13:04.693Z,435
2024-05-09T05:14:04.427Z,441
2024-05-09T05:15:04.432Z,440
2024-05-09T05:16:04.187Z,434
2024-05-09T05:17:04.965Z,425
2024-05-09T05:18:05.105Z,416
2024-05-09T05:19:07.163Z,420
2024-05-09T05:20:05.772Z,413
2024-05-09T05:21:04.870Z,408
2024-05-09T05:22:04.678Z,407
2024-05-09T05:23:04.531Z,405
2024-05-09T05:24:04.291Z,413
2024-05-09T05:25:04.356Z,407
2024-05-09T05:26:04.018Z,419
2024-05-09T05:27:04.769Z,409
2024-05-09T05:28:04.563Z,406
2024-05-09T05:29:04.293Z,409
2024-05-09T05:30:07.514Z,419
2024-05-09T05:31:05.045Z,412
2024-05-09T05:32:04.937Z,413
2024-05-09T05:33:04.852Z,409
2024-05-09T05:34:04.149Z,414
2024-05-09T05:35:05.080Z,411
2024-05-09T05:36:04.995Z,405
2024-05-09T05:37:04.700Z,401
2024-05-09T05:38:04.706Z,399
2024-05-09T05:39:04.834Z,406
2024-05-09T05:40:05.706Z,400
2024-05-09T05:41:04.594Z,397
2024-05-09T05:42:04.434Z,399
2024-05-09T05:43:04.304Z,402
2024-05-09T05:44:04.916Z,409
2024-05-09T05:45:06.674Z,405
2024-05-09T05:46:04.167Z,399
2024-05-09T05:47:04.709Z,387
2024-05-09T05:48:05.476Z,394
2024-05-09T05:49:04.495Z,398
2024-05-09T05:50:07.191Z,389
2024-05-09T05:51:04.985Z,388
2024-05-09T05:52:04.653Z,398
2024-05-09T05:54:04.483Z,395
2024-05-09T05:55:04.501Z,387
2024-05-09T05:56:04.121Z,384
2024-05-09T05:57:04.813Z,382
2024-05-09T05:58:04.858Z,381
2024-05-09T05:59:04.738Z,380
2024-05-09T06:00:09.456Z,382
2024-05-09T06:01:04.402Z,383
2024-05-09T06:02:04.570Z,372
2024-05-09T06:03:04.961Z,375
2024-05-09T06:04:04.491Z,372
2024-05-09T06:05:04.814Z,370
2024-05-09T06:06:04.963Z,360
2024-05-09T06:07:04.741Z,353
2024-05-09T06:09:04.898Z,366
2024-05-09T06:10:09.297Z,365
2024-05-09T06:12:05.118Z,355
2024-05-09T06:13:05.133Z,347
2024-05-09T06:14:05.005Z,350
2024-05-09T06:15:05.156Z,355
2024-05-09T06:16:04.847Z,368
2024-05-09T06:17:04.609Z,360
2024-05-09T06:18:04.846Z,353
2024-05-09T06:19:04.383Z,351
2024-05-09T06:20:07.439Z,349
2024-05-09T06:21:04.344Z,344
2024-05-09T06:22:04.131Z,354
2024-05-09T06:24:06.532Z,342
2024-05-09T06:25:04.621Z,341
2024-05-09T06:26:04.222Z,338
2024-05-09T06:27:04.057Z,336
2024-05-09T06:28:05.245Z,335
2024-05-09T06:29:04.076Z,341
2024-05-09T06:30:08.161Z,329
2024-05-09T06:31:04.706Z,331
2024-05-09T06:32:04.729Z,337
2024-05-09T06:33:05.048Z,332
2024-05-09T06:35:05.282Z,341
2024-05-09T06:36:04.293Z,339
2024-05-09T06:37:04.184Z,342
2024-05-09T06:38:04.930Z,331
2024-05-09T06:39:05.016Z,336
2024-05-09T06:40:07.192Z,345
2024-05-09T06:41:04.178Z,354
2024-05-09T06:42:04.936Z,355
2024-05-09T06:43:04.690Z,340
2024-05-09T06:44:04.673Z,342
2024-05-09T06:46:04.286Z,344
2024-05-09T06:47:04.331Z,345
2024-05-09T06:48:04.661Z,347
2024-05-09T06:49:04.484Z,349
2024-05-09T06:50:06.453Z,342
2024-05-09T06:51:04.556Z,330
2024-05-09T06:52:04.466Z,352
2024-05-09T06:53:04.317Z,355
2024-05-09T06:54:04.409Z,351
2024-05-09T06:55:04.414Z,356
2024-05-09T06:56:04.122Z,351
2024-05-09T06:57:05.161Z,348
2024-05-09T06:59:05.261Z,332
2024-05-09T07:00:08.178Z,336
2024-05-09T07:02:04.850Z,343
2024-05-09T07:03:05.936Z,342
2024-05-09T07:04:04.798Z,332
2024-05-09T07:05:04.862Z,333
2024-05-09T07:07:05.195Z,331
2024-05-09T07:08:05.583Z,345
2024-05-09T07:09:05.057Z,336
2024-05-09T07:11:04.633Z,329
2024-05-09T07:12:05.276Z,324
2024-05-09T07:13:05.135Z,329
2024-05-09T07:14:04.594Z,323
2024-05-09T07:15:05.059Z,339
2024-05-09T07:16:05.539Z,338
2024-05-09T07:17:05.075Z,335
2024-05-09T07:18:04.854Z,337
2024-05-09T07:19:05.699Z,332
2024-05-09T07:20:06.841Z,330
2024-05-09T07:21:04.883Z,324
2024-05-09T07:22:05.021Z,325
2024-05-09T07:23:05.427Z,328
2024-05-09T07:24:04.774Z,336
2024-05-09T07:25:05.148Z,348
2024-05-09T07:26:04.496Z,347
2024-05-09T07:28:04.952Z,345
2024-05-09T07:29:05.059Z,343
2024-05-09T07:30:07.184Z,336
2024-05-09T07:31:04.812Z,332
2024-05-09T07:32:04.822Z,334
2024-05-09T07:33:05.503Z,336
2024-05-09T07:34:05.197Z,331
2024-05-09T07:35:04.467Z,329
2024-05-09T07:36:04.688Z,340
2024-05-09T07:37:04.669Z,343
2024-05-09T07:38:05.003Z,335
2024-05-09T07:39:04.525Z,346
2024-05-09T07:40:07.445Z,352
2024-05-09T07:41:04.490Z,344
2024-05-09T07:42:04.971Z,342
2024-05-09T07:43:05.514Z,332
2024-05-09T07:44:04.624Z,338
2024-05-09T07:45:21.494Z,340
2024-05-09T07:47:04.326Z,339
2024-05-09T07:48:14.341Z,332
2024-05-09T07:50:53.358Z,328
2024-05-09T07:52:01.238Z,343
2024-05-09T07:54:05.995Z,337
2024-05-09T07:55:05.615Z,342
2024-05-09T07:56:04.770Z,333
2024-05-09T07:57:05.199Z,339
2024-05-09T07:59:04.564Z,341
2024-05-09T08:00:06.549Z,346
2024-05-09T08:01:05.699Z,336
2024-05-09T08:02:05.025Z,330
2024-05-09T08:03:04.937Z,326
2024-05-09T08:04:05.896Z,327
2024-05-09T08:05:04.704Z,322
2024-05-09T08:06:05.175Z,335
2024-05-09T08:07:04.520Z,340
2024-05-09T08:08:04.521Z,332
2024-05-09T08:09:08.218Z,326
2024-05-09T08:10:06.509Z,324
2024-05-09T08:11:05.388Z,332
2024-05-09T08:12:04.762Z,333
2024-05-09T08:13:05.362Z,326
2024-05-09T08:14:04.784Z,318
2024-05-09T08:15:05.049Z,320
2024-05-09T08:16:04.945Z,321
2024-05-09T08:17:05.113Z,330
2024-05-09T08:18:04.736Z,327
2024-05-09T08:19:05.044Z,320
2024-05-09T08:20:05.580Z,330
2024-05-09T08:21:04.675Z,345
2024-05-09T08:22:04.343Z,340
2024-05-09T08:23:04.296Z,339
2024-05-09T08:24:05.139Z,333
2024-05-09T08:25:05.070Z,334
2024-05-09T08:26:04.681Z,325
2024-05-09T08:27:04.316Z,329
2024-05-09T08:28:05.124Z,326
2024-05-09T08:29:04.929Z,315
2024-05-09T08:30:06.316Z,313
2024-05-09T08:31:06.939Z,320
2024-05-09T08:32:04.056Z,332
2024-05-09T08:34:04.701Z,324
2024-05-09T08:35:04.868Z,322
2024-05-09T08:37:12.922Z,323
2024-05-09T08:38:04.824Z,332
2024-05-09T08:39:04.263Z,324
2024-05-09T08:40:06.460Z,316
2024-05-09T08:41:05.148Z,318
2024-05-09T08:42:04.963Z,311
2024-05-09T08:43:04.968Z,305
2024-05-09T08:44:04.272Z,313
2024-05-09T08:45:05.308Z,316
2024-05-09T08:46:04.197Z,312
2024-05-09T08:47:05.114Z,315
2024-05-09T08:48:05.604Z,312
2024-05-09T08:49:04.771Z,316
2024-05-09T08:50:05.341Z,323
2024-05-09T08:51:04.026Z,328
2024-05-09T08:52:04.580Z,326
2024-05-09T08:53:04.402Z,311
2024-05-09T08:54:04.097Z,318
2024-05-09T08:55:04.953Z,325
2024-05-09T08:56:04.739Z,329
2024-05-09T08:57:04.363Z,315
2024-05-09T08:59:04.322Z,321
2024-05-09T09:00:08.036Z,317
2024-05-09T09:01:04.388Z,322
2024-05-09T09:03:04.671Z,329
2024-05-09T09:04:04.621Z,331
2024-05-09T09:05:04.957Z,326
2024-05-09T09:06:04.983Z,325
2024-05-09T09:07:04.701Z,327
2024-05-09T09:09:04.329Z,316
2024-05-09T09:10:08.469Z,315
2024-05-09T09:11:04.690Z,304
2024-05-09T09:12:05.769Z,305
2024-05-09T09:14:04.753Z,314
2024-05-09T09:16:04.689Z,313
2024-05-09T09:17:04.601Z,314
2024-05-09T09:18:04.936Z,305
2024-05-09T09:19:04.932Z,312
2024-05-09T09:20:05.471Z,313
2024-05-09T09:21:04.723Z,312
2024-05-09T09:22:05.376Z,309
2024-05-09T09:23:05.101Z,306
2024-05-09T09:24:05.353Z,315
2024-05-09T09:25:05.229Z,318
2024-05-09T09:26:04.721Z,321
2024-05-09T09:27:05.039Z,319
2024-05-09T09:28:05.521Z,327
2024-05-09T09:29:04.402Z,318
2024-05-09T09:31:05.290Z,314
2024-05-09T09:32:04.218Z,318
2024-05-09T09:33:06.245Z,321
2024-05-09T09:34:04.853Z,314
2024-05-09T09:35:04.744Z,322
2024-05-09T09:36:07.673Z,327
2024-05-09T09:37:05.411Z,323
2024-05-09T09:38:05.281Z,314
2024-05-09T09:39:04.630Z,309
2024-05-09T09:41:04.585Z,315
2024-05-09T09:42:05.142Z,308
2024-05-09T09:43:05.467Z,313
2024-05-09T09:44:04.860Z,321
2024-05-09T09:45:05.909Z,319
2024-05-09T09:46:06.298Z,315
2024-05-09T09:48:05.098Z,314
2024-05-09T09:49:04.515Z,313
2024-05-09T09:50:09.444Z,305
2024-05-09T09:51:04.315Z,309
2024-05-09T09:52:04.282Z,301
2024-05-09T09:53:04.494Z,297
2024-05-09T09:54:04.536Z,303
2024-05-09T09:55:04.683Z,307
2024-05-09T09:56:05.558Z,313
2024-05-09T09:58:05.887Z,316
2024-05-09T09:59:04.263Z,315
2024-05-09T10:00:07.411Z,313
2024-05-09T10:01:05.073Z,309
2024-05-09T10:02:05.322Z,317
2024-05-09T10:03:04.331Z,322
2024-05-09T10:04:04.399Z,320
2024-05-09T10:05:04.673Z,318
2024-05-09T10:06:04.550Z,305
2024-05-09T10:07:04.609Z,315
2024-05-09T10:08:04.406Z,311
2024-05-09T10:09:04.409Z,316
2024-05-09T10:10:06.807Z,318
2024-05-09T10:11:04.358Z,311
2024-05-09T10:13:04.691Z,320
2024-05-09T10:14:04.084Z,314
2024-05-09T10:15:05.207Z,322
2024-05-09T10:16:05.186Z,330
2024-05-09T10:17:05.502Z,332
2024-05-09T10:18:04.933Z,325
2024-05-09T10:19:04.679Z,322
2024-05-09T10:20:11.825Z,316
2024-05-09T10:21:04.755Z,314
2024-05-09T10:22:04.479Z,309
2024-05-09T10:23:04.548Z,311
2024-05-09T10:24:04.363Z,304
2024-05-09T10:25:05.176Z,315
2024-05-09T10:26:04.169Z,316
2024-05-09T10:27:04.445Z,328
2024-05-09T10:28:04.337Z,323
2024-05-09T10:29:04.194Z,315
2024-05-09T10:31:04.852Z,317
2024-05-09T10:32:04.831Z,325
2024-05-09T10:33:05.027Z,318
2024-05-09T10:34:05.190Z,330
2024-05-09T10:35:04.498Z,317
2024-05-09T10:37:04.955Z,319
2024-05-09T10:38:04.960Z,323
2024-05-09T10:39:04.954Z,321
2024-05-09T10:40:09.303Z,323
2024-05-09T10:41:04.322Z,315
2024-05-09T10:42:05.096Z,313
2024-05-09T10:43:06.551Z,320
2024-05-09T10:44:04.178Z,324
2024-05-09T10:45:05.162Z,330
2024-05-09T10:47:04.434Z,332
2024-05-09T10:48:04.754Z,325
2024-05-09T10:49:07.264Z,330
2024-05-09T10:50:07.983Z,319
2024-05-09T10:51:04.695Z,314
2024-05-09T10:52:04.456Z,311
2024-05-09T10:53:04.307Z,301
2024-05-09T10:54:04.239Z,314
2024-05-09T10:55:05.671Z,312
2024-05-09T10:56:04.668Z,309
2024-05-09T10:57:04.771Z,314
2024-05-09T10:58:04.829Z,310
2024-05-09T10:59:05.425Z,314
2024-05-09T11:00:07.886Z,318
2024-05-09T11:01:06.796Z,322
2024-05-09T11:02:05.039Z,319
2024-05-09T11:03:05.403Z,314
2024-05-09T11:04:04.605Z,322
2024-05-09T11:05:04.982Z,319
2024-05-09T11:06:05.465Z,310
2024-05-09T11:07:05.549Z,306
2024-05-09T11:08:04.761Z,314
2024-05-09T11:09:05.098Z,319
2024-05-09T11:10:07.499Z,317
2024-05-09T11:11:04.746Z,335
2024-05-09T11:12:05.310Z,340
2024-05-09T11:13:04.436Z,336
2024-05-09T11:14:04.904Z,323
2024-05-09T11:15:05.345Z,330
2024-05-09T11:16:04.770Z,332
2024-05-09T11:17:04.541Z,318
2024-05-09T11:18:04.810Z,323
2024-05-09T11:19:05.132Z,318
2024-05-09T11:20:10.421Z,316
2024-05-09T11:21:04.929Z,314
2024-05-09T11:22:05.052Z,306
2024-05-09T11:23:05.269Z,299
2024-05-09T11:25:04.733Z,308
2024-05-09T11:26:04.872Z,304
2024-05-09T11:27:04.964Z,307
2024-05-09T11:28:05.329Z,311
2024-05-09T11:29:04.570Z,307
2024-05-09T11:30:07.256Z,315
2024-05-09T11:31:04.458Z,324
2024-05-09T11:32:04.829Z,315
2024-05-09T11:33:05.179Z,308
2024-05-09T11:34:04.329Z,315
2024-05-09T11:35:04.572Z,313
2024-05-09T11:36:04.381Z,311
2024-05-09T11:37:04.602Z,317
2024-05-09T11:38:04.751Z,323
2024-05-09T11:39:05.043Z,330
2024-05-09T11:40:09.258Z,320
2024-05-09T11:41:04.348Z,315
2024-05-09T11:42:04.619Z,308
2024-05-09T11:43:04.605Z,312
2024-05-09T11:44:04.925Z,315
2024-05-09T11:45:05.260Z,320
2024-05-09T11:46:04.470Z,315
2024-05-09T11:47:04.969Z,319
2024-05-09T11:48:05.069Z,326
2024-05-09T11:49:04.836Z,322
2024-05-09T11:50:07.890Z,319
2024-05-09T11:51:04.138Z,321
2024-05-09T11:52:05.113Z,319
2024-05-09T11:53:05.121Z,314
2024-05-09T11:54:05.260Z,322
2024-05-09T11:55:04.414Z,324
2024-05-09T11:56:04.579Z,323
2024-05-09T11:59:04.795Z,320
2024-05-09T12:00:07.403Z,326
2024-05-09T12:01:05.242Z,327
2024-05-09T12:02:04.651Z,323
2024-05-09T12:03:05.606Z,326
2024-05-09T12:04:05.225Z,334
2024-05-09T12:05:04.711Z,333
2024-05-09T12:06:04.968Z,329
2024-05-09T12:07:04.315Z,325
2024-05-09T12:08:05.232Z,311
2024-05-09T12:09:04.691Z,318
2024-05-09T12:10:09.415Z,310
2024-05-09T12:11:05.252Z,306
2024-05-09T12:12:04.582Z,314
2024-05-09T12:13:06.314Z,320
2024-05-09T12:14:04.383Z,331
2024-05-09T12:15:04.596Z,315
2024-05-09T12:16:04.606Z,309
2024-05-09T12:17:04.538Z,324
2024-05-09T12:18:05.028Z,330
2024-05-09T12:19:05.211Z,325
2024-05-09T12:20:07.107Z,326
2024-05-09T12:21:04.332Z,318
2024-05-09T12:22:04.366Z,335
2024-05-09T12:23:04.195Z,339
2024-05-09T12:24:04.132Z,328
2024-05-09T12:25:05.142Z,324
2024-05-09T12:26:05.020Z,323
2024-05-09T12:27:05.085Z,328
2024-05-09T12:28:05.040Z,326
2024-05-09T12:29:04.274Z,325
2024-05-09T12:30:07.179Z,322
2024-05-09T12:31:04.504Z,320
2024-05-09T12:32:04.401Z,324
2024-05-09T12:33:04.663Z,330
2024-05-09T12:34:05.078Z,325
2024-05-09T12:35:04.328Z,329
2024-05-09T12:36:04.203Z,334
2024-05-09T12:37:05.180Z,330
2024-05-09T12:38:05.149Z,315
2024-05-09T12:39:04.185Z,311
2024-05-09T12:40:10.613Z,306
2024-05-09T12:41:04.721Z,297
2024-05-09T12:42:04.770Z,303
2024-05-09T12:43:05.092Z,317
2024-05-09T12:44:04.466Z,329
2024-05-09T12:45:04.893Z,323
2024-05-09T12:46:04.945Z,319
2024-05-09T12:47:05.033Z,333
2024-05-09T12:48:05.313Z,326
2024-05-09T12:49:05.060Z,319
2024-05-09T12:50:06.410Z,317
2024-05-09T12:51:05.313Z,321
2024-05-09T12:52:04.250Z,314
2024-05-09T12:53:04.973Z,323
2024-05-09T12:54:04.457Z,319
2024-05-09T12:55:04.736Z,326
2024-05-09T12:56:06.012Z,329
2024-05-09T12:57:04.639Z,331
2024-05-09T12:58:04.738Z,338
2024-05-09T12:59:04.990Z,339
2024-05-09T13:00:05.824Z,326
2024-05-09T13:01:04.285Z,321
2024-05-09T13:02:04.624Z,328
2024-05-09T13:03:04.924Z,332
2024-05-09T13:04:04.569Z,329
2024-05-09T13:05:05.217Z,323
2024-05-09T13:06:04.439Z,327
2024-05-09T13:07:07.358Z,330
2024-05-09T13:09:05.141Z,334
2024-05-09T13:10:05.701Z,330
2024-05-09T13:11:05.156Z,313
2024-05-09T13:12:04.169Z,314
2024-05-09T13:14:05.089Z,323
2024-05-09T13:15:05.116Z,320
2024-05-09T13:16:04.371Z,313
2024-05-09T13:17:04.732Z,311
2024-05-09T13:18:04.849Z,306
2024-05-09T13:19:05.117Z,309
2024-05-09T13:20:07.053Z,311
2024-05-09T13:21:05.066Z,314
2024-05-09T13:22:05.023Z,329
2024-05-09T13:23:05.568Z,321
2024-05-09T13:24:04.944Z,325
2024-05-09T13:25:05.163Z,329
2024-05-09T13:27:04.311Z,335
2024-05-09T13:28:04.615Z,328
2024-05-09T13:29:04.853Z,321
2024-05-09T13:30:06.260Z,319
2024-05-09T13:31:04.963Z,325
2024-05-09T13:32:04.854Z,328
2024-05-09T13:33:05.465Z,337
2024-05-09T13:34:04.864Z,318
2024-05-09T13:35:04.924Z,323
2024-05-09T13:36:04.980Z,324
2024-05-09T13:37:05.082Z,315
2024-05-09T13:38:04.960Z,319
2024-05-09T13:39:05.142Z,326
2024-05-09T13:40:06.842Z,327
2024-05-09T13:41:04.459Z,315
2024-05-09T13:42:04.400Z,320
2024-05-09T13:43:04.686Z,324
2024-05-09T13:44:04.171Z,331
2024-05-09T13:45:05.223Z,325
2024-05-09T13:46:05.217Z,324
2024-05-09T13:47:04.299Z,311
2024-05-09T13:48:04.750Z,305
2024-05-09T13:49:04.468Z,303
2024-05-09T13:50:05.362Z,302
2024-05-09T13:51:04.388Z,318
2024-05-09T13:52:04.374Z,314
2024-05-09T13:53:04.266Z,309
2024-05-09T13:54:04.696Z,318
2024-05-09T13:55:05.017Z,319
2024-05-09T13:56:05.228Z,318
2024-05-09T13:57:05.294Z,321
2024-05-09T13:58:05.477Z,305
2024-05-09T13:59:04.875Z,320
2024-05-09T14:00:07.155Z,334
2024-05-09T14:01:04.700Z,336
2024-05-09T14:02:04.864Z,322
2024-05-09T14:03:04.446Z,327
2024-05-09T14:04:04.666Z,331
2024-05-09T14:05:05.321Z,337
2024-05-09T14:06:04.583Z,340
2024-05-09T14:08:04.612Z,324
2024-05-09T14:09:04.496Z,310
2024-05-09T14:10:06.539Z,315
2024-05-09T14:11:04.699Z,301
2024-05-09T14:12:04.447Z,292
2024-05-09T14:13:04.562Z,293
2024-05-09T14:14:04.495Z,299
2024-05-09T14:15:04.446Z,302
2024-05-09T14:16:04.338Z,303
2024-05-09T14:17:04.488Z,313
2024-05-09T14:18:04.638Z,322
2024-05-09T14:19:04.049Z,321
2024-05-09T14:20:06.213Z,323
2024-05-09T14:21:05.116Z,331
2024-05-09T14:22:05.016Z,326
2024-05-09T14:23:05.056Z,316
2024-05-09T14:24:04.967Z,320
2024-05-09T14:25:04.990Z,318
2024-05-09T14:26:04.879Z,308
2024-05-09T14:27:04.726Z,303
2024-05-09T14:28:04.620Z,321
2024-05-09T14:29:04.327Z,326
2024-05-09T14:30:07.387Z,316
2024-05-09T14:31:04.724Z,304
2024-05-09T14:32:04.790Z,309
2024-05-09T14:33:05.705Z,315
2024-05-09T14:34:04.459Z,321
2024-05-09T14:35:05.116Z,323
2024-05-09T14:36:04.551Z,318
2024-05-09T14:37:04.616Z,323
2024-05-09T14:38:04.756Z,324
2024-05-09T14:39:04.880Z,325
2024-05-09T14:40:07.073Z,329
2024-05-09T14:41:05.131Z,330
2024-05-09T14:43:05.346Z,322
2024-05-09T14:44:04.531Z,328